Time;durP1;ratioP1;P1;durP2;ratioP2;P2;SDS_P1;SDS_P2;PMS_P1;PMS_P2;Temp;Humidity;BMP_temperature;BMP_pressure;BME280_temperature;BME280_humidity;BME280_pressure;Samples;Min_cycle;Max_cycle;Signal;HPM_P1;HPM_P2
2022/12/28 00:00:20;;;;;;;2.45;1.30;;;;;;;18.16;44.85;101496.00;5044643;28;20033;-62
2022/12/28 00:02:45;;;;;;;2.78;1.30;;;;;;;18.14;44.79;101493.47;5044129;28;20060;-62
2022/12/28 00:05:10;;;;;;;1.55;1.10;;;;;;;17.92;44.55;101442.72;5044381;28;20389;-62
2022/12/28 00:07:36;;;;;;;1.50;1.20;;;;;;;18.14;44.73;101485.41;5044231;28;20096;-62
2022/12/28 00:10:01;;;;;;;2.15;1.20;;;;;;;18.12;44.59;101471.22;5042869;28;20025;-62
2022/12/28 00:12:27;;;;;;;2.17;1.70;;;;;;;18.11;44.73;101464.16;5044198;28;20029;-62
2022/12/28 00:14:53;;;;;;;2.13;1.23;;;;;;;18.12;45.09;101457.78;5044264;28;20036;-62
2022/12/28 00:17:18;;;;;;;2.20;1.67;;;;;;;18.12;44.71;101456.94;5042838;28;20029;-62
2022/12/28 00:19:43;;;;;;;2.10;1.40;;;;;;;18.03;44.40;101431.78;5044043;28;20036;-62
2022/12/28 00:22:08;;;;;;;2.08;1.38;;;;;;;18.08;44.77;101428.63;5043508;28;20029;-61
2022/12/28 00:24:34;;;;;;;2.10;1.50;;;;;;;18.09;44.76;101436.53;5044004;28;20029;-62
2022/12/28 00:26:59;;;;;;;1.90;1.27;;;;;;;18.09;44.57;101425.78;5044096;28;20032;-62
2022/12/28 00:29:24;;;;;;;2.55;1.40;;;;;;;18.08;44.66;101417.84;5043862;28;20081;-62
2022/12/28 00:31:49;;;;;;;2.38;1.30;;;;;;;18.07;44.70;101414.31;5043520;28;20033;-62
2022/12/28 00:34:15;;;;;;;1.67;1.40;;;;;;;18.07;44.55;101410.78;5044042;28;20033;-61
2022/12/28 00:36:40;;;;;;;1.85;1.30;;;;;;;18.06;44.45;101414.50;5044380;28;20026;-61
2022/12/28 00:39:06;;;;;;;2.22;1.33;;;;;;;18.04;44.61;101390.41;5043973;28;20639;-61
2022/12/28 00:41:31;;;;;;;2.50;1.42;;;;;;;18.04;44.82;101393.09;5044001;28;20079;-61
2022/12/28 00:43:56;;;;;;;2.85;1.65;;;;;;;18.02;44.71;101372.72;5043997;28;20111;-61
2022/12/28 00:46:21;;;;;;;2.60;1.27;;;;;;;18.01;44.61;101371.03;5042993;28;20030;-61
2022/12/28 00:48:47;;;;;;;1.58;1.10;;;;;;;18.02;44.64;101375.44;5043208;28;20041;-61
2022/12/28 00:51:14;;;;;;;2.10;1.40;;;;;;;18.02;44.61;101367.34;5043923;28;20539;-62
2022/12/28 00:53:40;;;;;;;1.75;1.20;;;;;;;18.01;44.71;101371.03;5043859;28;20036;-61
2022/12/28 00:56:09;;;;;;;2.30;1.35;;;;;;;17.99;44.56;101355.88;5043957;28;20056;-62
2022/12/28 00:58:35;;;;;;;2.25;1.40;;;;;;;17.99;44.82;101355.03;5033426;28;20022;-62
2022/12/28 01:01:00;;;;;;;3.78;1.63;;;;;;;17.98;44.79;101359.56;5023898;28;20022;-61
2022/12/28 01:03:25;;;;;;;2.83;1.27;;;;;;;17.99;44.68;101347.81;5023707;28;20037;-62
2022/12/28 01:05:51;;;;;;;2.38;1.33;;;;;;;17.99;44.79;101344.28;5024027;28;20034;-62
2022/12/28 01:08:16;;;;;;;1.33;1.10;;;;;;;17.98;44.62;101342.59;5023848;28;20022;-61
2022/12/28 01:10:41;;;;;;;1.98;1.20;;;;;;;17.97;44.63;101324.75;5023803;28;20030;-61
2022/12/28 01:13:07;;;;;;;2.20;1.15;;;;;;;17.96;44.63;101323.88;5023936;28;20049;-61
2022/12/28 01:15:32;;;;;;;3.72;1.80;;;;;;;17.87;44.52;101297.91;5023745;28;20034;-61
2022/12/28 01:17:57;;;;;;;2.05;1.42;;;;;;;17.94;44.49;101304.38;5048393;28;20077;-62
2022/12/28 01:20:22;;;;;;;2.55;1.20;;;;;;;17.95;44.60;101292.63;5047420;28;20083;-61
2022/12/28 01:22:48;;;;;;;2.03;1.38;;;;;;;17.95;44.70;101299.84;5047124;28;20035;-62
2022/12/28 01:25:13;;;;;;;1.88;1.23;;;;;;;17.94;44.79;101296.31;5047725;28;20028;-62
2022/12/28 01:27:38;;;;;;;3.05;1.35;;;;;;;17.93;44.67;101289.25;5045969;28;20064;-62
2022/12/28 01:30:05;;;;;;;2.95;1.83;;;;;;;17.92;44.65;101274.06;5046023;28;20044;-62
2022/12/28 01:32:30;;;;;;;1.20;1.10;;;;;;;17.92;44.72;101286.69;5046909;28;20084;-62
2022/12/28 01:34:55;;;;;;;1.88;1.20;;;;;;;17.84;44.60;101271.34;5047261;28;20033;-62
2022/12/28 01:37:21;;;;;;;3.80;1.50;;;;;;;17.90;44.76;101265.34;5047350;28;20089;-62
2022/12/28 01:39:46;;;;;;;2.55;1.38;;;;;;;17.90;44.52;101264.50;5047159;28;20527;-62
2022/12/28 01:42:15;;;;;;;2.13;1.25;;;;;;;17.84;44.64;101263.28;5047019;28;20040;-62
2022/12/28 01:44:43;;;;;;;1.70;1.23;;;;;;;17.89;44.65;101250.19;5047109;28;20029;-61
2022/12/28 01:47:12;;;;;;;2.55;1.30;;;;;;;17.88;44.55;101279.91;5046171;28;20095;-61
2022/12/28 01:49:53;;;;;;;1.73;1.20;;;;;;;17.88;44.58;101242.25;5046612;28;20068;-61
2022/12/28 01:52:25;;;;;;;2.50;1.30;;;;;;;17.87;44.56;101254.88;5046808;28;20021;-61
2022/12/28 01:54:51;;;;;;;2.05;1.40;;;;;;;17.87;44.46;101252.19;5046927;28;20044;-62
2022/12/28 01:57:18;;;;;;;1.92;1.20;;;;;;;17.85;44.70;101247.97;5046571;28;20089;-62
2022/12/28 01:59:49;;;;;;;1.58;1.27;;;;;;;17.85;44.68;101234.53;5026545;28;20826;-61
2022/12/28 02:02:14;;;;;;;1.50;1.10;;;;;;;17.84;44.46;101228.31;5041491;28;20021;-62
2022/12/28 02:04:40;;;;;;;1.58;1.17;;;;;;;17.85;44.59;101229.13;5026915;28;20045;-61
2022/12/28 02:07:05;;;;;;;1.52;1.30;;;;;;;17.80;44.71;101209.91;5041912;28;20113;-62
2022/12/28 02:09:35;;;;;;;2.13;1.17;;;;;;;17.84;44.44;101211.28;5042053;28;20022;-61
2022/12/28 02:12:01;;;;;;;1.83;1.30;;;;;;;17.82;44.56;101206.06;5025377;28;20030;-62
2022/12/28 02:14:26;;;;;;;2.00;1.30;;;;;;;17.82;44.65;101202.53;5026600;28;20032;-62
2022/12/28 02:16:53;;;;;;;1.63;1.20;;;;;;;17.82;44.40;101213.31;5041366;28;20042;-61
2022/12/28 02:19:24;;;;;;;3.53;1.40;;;;;;;17.81;44.41;101188.25;5046332;28;20049;-61
2022/12/28 02:22:24;;;;;;;2.55;1.42;;;;;;;17.80;44.43;101183.00;5045103;28;20085;-61
2022/12/28 02:25:11;;;;;;;2.00;1.40;;;;;;;17.80;44.66;101181.19;5045201;28;20018;-61
2022/12/28 02:27:59;;;;;;;2.10;1.20;;;;;;;17.80;44.64;101177.63;5045911;28;20017;-61
2022/12/28 02:30:25;;;;;;;2.67;1.30;;;;;;;17.76;44.64;101163.66;5044326;28;20025;-61
2022/12/28 02:33:30;;;;;;;1.20;1.10;;;;;;;17.78;44.48;101166.19;5045832;28;20029;-61
2022/12/28 02:36:04;;;;;;;1.40;1.15;;;;;;;17.77;44.55;101159.97;5045880;28;20037;-61
2022/12/28 02:38:47;;;;;;;1.48;1.10;;;;;;;17.77;44.45;101145.69;5044714;28;20111;-61
2022/12/28 02:41:15;;;;;;;1.83;1.20;;;;;;;17.72;44.73;101132.69;5046097;28;20060;-61
2022/12/28 02:43:40;;;;;;;1.80;1.48;;;;;;;17.76;44.79;101149.38;5045573;28;20395;-61
2022/12/28 02:52:16;;;;;;;1.73;1.40;;;;;;;17.75;44.43;101135.06;5023397;28;20068;-62
2022/12/28 02:57:42;;;;;;;1.75;1.20;;;;;;;17.73;44.40;101128.97;5023298;28;20037;-62
2022/12/28 03:00:21;;;;;;;1.77;1.15;;;;;;;17.75;44.62;101118.94;5022630;28;20148;-62
2022/12/28 03:03:09;;;;;;;;;;;;;;;17.72;44.41;101111.16;5006905;28;20430;-62
2022/12/28 03:09:00;;;;;;;2.30;1.70;;;;;;;17.70;44.49;101097.84;5023290;28;20097;-62
2022/12/28 03:11:40;;;;;;;2.47;1.43;;;;;;;17.68;44.50;101094.50;5007004;28;20073;-62
2022/12/28 03:14:08;;;;;;;1.95;1.30;;;;;;;17.69;44.47;101101.56;4990567;28;20275;-62
2022/12/28 03:33:07;;;;;;;1.50;1.40;;;;;;;17.66;44.41;101077.66;5037269;28;20080;-61
2022/12/28 03:35:48;;;;;;;1.73;1.20;;;;;;;17.66;44.52;101072.28;5023929;28;20032;-62
2022/12/28 03:38:26;;;;;;;0.93;0.93;;;;;;;17.67;44.50;101073.13;5024730;28;20018;-62
2022/12/28 03:40:56;;;;;;;1.77;1.02;;;;;;;17.67;44.54;101081.19;5023455;28;20025;-62
2022/12/28 03:43:43;;;;;;;2.10;1.55;;;;;;;17.67;44.55;101079.38;5024823;28;20684;-62
2022/12/28 03:46:33;;;;;;;1.58;1.10;;;;;;;17.59;44.61;101060.47;5023544;28;20034;-62
2022/12/28 03:48:59;;;;;;;1.45;1.23;;;;;;;17.67;44.47;101068.63;5059066;28;20072;-62
2022/12/28 03:51:26;;;;;;;1.88;1.10;;;;;;;17.68;44.61;101064.06;5043404;28;20026;-62
2022/12/28 03:53:51;;;;;;;1.50;1.10;;;;;;;17.67;44.56;101065.06;5043590;28;20036;-62
2022/12/28 03:56:19;;;;;;;1.50;1.10;;;;;;;17.66;44.43;101052.63;5044905;28;20081;-61
2022/12/28 03:58:45;;;;;;;1.25;1.00;;;;;;;17.66;44.52;101058.00;5033522;28;20014;-62
2022/12/28 04:01:11;;;;;;;1.10;1.00;;;;;;;17.59;44.40;101038.13;5023648;28;20108;-61
2022/12/28 04:03:36;;;;;;;1.85;1.10;;;;;;;17.65;44.41;101049.09;5024286;28;20064;-62
2022/12/28 04:06:02;;;;;;;1.40;1.30;;;;;;;17.65;44.50;101043.72;5024809;28;20030;-61
2022/12/28 04:08:27;;;;;;;1.65;1.00;;;;;;;17.66;44.61;101048.06;5024539;28;20029;-61
2022/12/28 04:10:53;;;;;;;2.30;1.27;;;;;;;17.67;44.75;101043.53;5024460;28;20060;-61
2022/12/28 04:13:18;;;;;;;2.05;1.10;;;;;;;17.66;44.76;101036.47;5024614;28;20022;-61
2022/12/28 04:15:43;;;;;;;1.38;0.93;;;;;;;17.64;44.45;101038.50;5024334;28;20037;-61
2022/12/28 04:18:09;;;;;;;1.58;1.33;;;;;;;17.66;44.54;101042.69;5034526;28;20029;-61
2022/12/28 04:20:34;;;;;;;1.55;1.00;;;;;;;17.65;44.65;101030.25;5044314;28;20037;-62
2022/12/28 04:22:59;;;;;;;1.17;1.08;;;;;;;17.65;44.71;101032.94;5044193;28;20123;-62
2022/12/28 04:25:24;;;;;;;1.48;1.23;;;;;;;17.66;44.81;101028.41;5044285;28;20030;-62
2022/12/28 04:27:50;;;;;;;1.60;1.30;;;;;;;17.65;44.50;101027.56;5043953;28;20467;-62
2022/12/28 04:30:15;;;;;;;1.67;1.25;;;;;;;17.65;44.61;101024.03;5044104;28;20033;-61
2022/12/28 04:32:41;;;;;;;1.95;1.20;;;;;;;17.65;44.58;101005.22;5043584;28;20032;-62
2022/12/28 04:35:06;;;;;;;1.65;1.00;;;;;;;17.65;44.46;101015.97;5044072;28;20081;-62
2022/12/28 04:37:35;;;;;;;1.38;1.15;;;;;;;17.65;44.76;101013.28;5044161;28;20036;-61
2022/12/28 04:40:00;;;;;;;1.10;1.00;;;;;;;17.65;44.79;101002.53;5044186;28;20037;-61
2022/12/28 04:42:26;;;;;;;1.15;1.05;;;;;;;17.61;44.59;101003.84;5043819;28;20030;-62
2022/12/28 04:44:51;;;;;;;1.65;1.10;;;;;;;17.60;44.35;100996.78;5043969;28;20037;-62
2022/12/28 04:47:16;;;;;;;1.23;1.10;;;;;;;17.64;44.69;101003.53;5043297;28;20021;-62
2022/12/28 04:49:41;;;;;;;1.10;1.00;;;;;;;17.63;44.64;100997.31;5043676;28;20589;-62
2022/12/28 04:52:07;;;;;;;1.10;1.00;;;;;;;17.63;44.65;101000.03;5044981;28;20099;-62
2022/12/28 04:54:32;;;;;;;1.40;1.10;;;;;;;17.63;44.69;100983.88;5048048;28;20021;-62
2022/12/28 04:56:57;;;;;;;1.15;1.10;;;;;;;17.63;44.53;100986.56;5048003;28;20085;-63
2022/12/28 04:59:23;;;;;;;1.20;1.10;;;;;;;17.52;44.62;100959.94;5047959;28;20033;-62
2022/12/28 05:01:48;;;;;;;1.10;0.95;;;;;;;17.63;44.67;100965.06;5045985;28;20037;-61
2022/12/28 05:04:13;;;;;;;1.33;1.23;;;;;;;17.63;44.66;100965.06;5046471;28;20030;-62
2022/12/28 05:06:38;;;;;;;1.33;1.20;;;;;;;17.62;44.88;100979.47;5047665;28;20044;-62
2022/12/28 05:09:04;;;;;;;1.02;1.02;;;;;;;17.56;44.80;100963.16;5047805;28;20140;-62
2022/12/28 05:11:30;;;;;;;0.80;0.80;;;;;;;17.62;44.71;100978.66;5047908;28;20026;-62
2022/12/28 05:13:56;;;;;;;1.50;1.10;;;;;;;17.62;44.83;100984.88;5047547;28;20025;-62
2022/12/28 05:16:23;;;;;;;2.00;1.27;;;;;;;17.62;44.76;100970.56;5042689;28;20513;-62
2022/12/28 05:18:49;;;;;;;1.77;0.90;;;;;;;17.62;44.79;100966.03;5039690;28;20037;-62
2022/12/28 05:21:17;;;;;;;1.17;1.00;;;;;;;17.63;44.53;100970.44;5040259;28;20187;-62
2022/12/28 05:23:43;;;;;;;1.10;1.02;;;;;;;17.60;44.59;100959.16;5046830;28;20048;-63
2022/12/28 05:26:11;;;;;;;2.03;1.08;;;;;;;17.54;44.64;100957.09;5046996;28;20111;-62
2022/12/28 05:28:37;;;;;;;1.20;1.10;;;;;;;17.62;44.80;100966.03;5045624;28;20022;-62
2022/12/28 05:31:05;;;;;;;1.00;0.90;;;;;;;17.63;44.60;100974.97;5046878;28;20026;-62
2022/12/28 05:33:32;;;;;;;1.33;1.20;;;;;;;17.63;44.98;100965.06;5045469;28;20119;-62
2022/12/28 05:36:04;;;;;;;1.02;0.93;;;;;;;17.63;44.75;100961.53;5047312;28;20041;-62
2022/12/28 05:38:31;;;;;;;1.00;0.90;;;;;;;17.64;44.83;100963.22;5059691;28;20014;-62
2022/12/28 05:41:03;;;;;;;0.90;0.90;;;;;;;17.63;45.02;100970.44;5045858;28;20029;-63
2022/12/28 05:43:29;;;;;;;1.02;0.93;;;;;;;17.62;44.95;100968.72;5046057;28;20071;-62
2022/12/28 05:45:59;;;;;;;0.98;0.88;;;;;;;17.64;44.80;100971.28;5046380;28;20033;-62
2022/12/28 05:48:24;;;;;;;1.15;1.05;;;;;;;17.64;44.56;100964.06;5045688;28;20109;-62
2022/12/28 05:50:50;;;;;;;1.52;0.90;;;;;;;17.65;45.10;100957.66;5044768;28;20034;-61
2022/12/28 05:53:15;;;;;;;0.90;0.88;;;;;;;17.66;45.20;100964.72;5044763;28;20021;-61
2022/12/28 05:55:40;;;;;;;1.05;0.95;;;;;;;17.67;45.09;100965.56;5045872;28;20109;-62
2022/12/28 05:58:07;;;;;;;0.98;0.88;;;;;;;17.69;45.27;100968.94;5044260;28;20076;-62
2022/12/28 06:00:32;;;;;;;1.10;1.00;;;;;;;17.68;45.15;100962.72;5043334;28;20090;-62
2022/12/28 06:02:57;;;;;;;1.23;1.00;;;;;;;17.70;45.07;100967.94;5043991;28;20079;-61
2022/12/28 06:05:23;;;;;;;1.42;1.10;;;;;;;17.70;44.93;100962.56;5044686;28;20025;-62
2022/12/28 06:07:51;;;;;;;0.90;0.80;;;;;;;17.72;45.39;100960.56;5044008;28;20048;-62
2022/12/28 06:10:16;;;;;;;1.13;0.98;;;;;;;17.72;45.53;100952.50;5046462;28;20038;-61
2022/12/28 06:12:41;;;;;;;0.70;0.70;;;;;;;17.73;45.27;100956.88;5045089;28;20033;-62
2022/12/28 06:15:07;;;;;;;1.10;1.00;;;;;;;17.75;45.41;100957.56;5045714;28;20025;-61
2022/12/28 06:17:32;;;;;;;1.10;1.00;;;;;;;17.76;45.63;100961.97;5044807;28;20077;-61
2022/12/28 06:19:58;;;;;;;1.55;0.95;;;;;;;17.76;45.81;100947.69;5045358;28;20029;-61
2022/12/28 06:22:23;;;;;;;0.90;0.90;;;;;;;17.78;45.83;100954.56;5044979;28;20030;-61
2022/12/28 06:24:48;;;;;;;1.10;1.00;;;;;;;17.78;45.75;100951.88;5044234;28;20079;-62
2022/12/28 06:27:13;;;;;;;1.00;0.90;;;;;;;17.80;45.78;100957.09;5043839;28;20029;-61
2022/12/28 06:29:39;;;;;;;1.80;1.05;;;;;;;17.80;45.93;100949.91;5045078;28;20109;-61
2022/12/28 06:32:04;;;;;;;1.55;0.88;;;;;;;17.82;45.97;100947.03;5043724;28;20409;-62
2022/12/28 06:34:29;;;;;;;1.08;0.98;;;;;;;17.82;46.01;100949.72;5044028;28;20025;-61
2022/12/28 06:36:56;;;;;;;1.95;1.00;;;;;;;17.80;45.97;100949.91;5045048;28;20060;-62
2022/12/28 06:39:22;;;;;;;1.00;0.90;;;;;;;17.83;46.25;100951.41;5043269;28;20049;-62
2022/12/28 06:41:47;;;;;;;0.80;0.80;;;;;;;17.85;45.92;100955.63;5045132;28;20056;-62
2022/12/28 06:44:12;;;;;;;1.10;1.00;;;;;;;17.86;46.05;100951.09;5045026;28;20025;-62
2022/12/28 06:46:38;;;;;;;0.98;0.90;;;;;;;17.87;45.81;100952.78;5042220;28;20030;-61
2022/12/28 06:49:03;;;;;;;1.10;1.00;;;;;;;17.88;46.16;100949.06;5043620;28;20038;-61
2022/12/28 06:51:35;;;;;;;1.15;1.05;;;;;;;17.88;45.89;100952.63;5044568;28;20029;-62
2022/12/28 06:54:00;;;;;;;0.95;0.80;;;;;;;17.89;46.14;100950.78;5042589;28;20068;-62
2022/12/28 06:56:29;;;;;;;1.00;0.80;;;;;;;17.90;45.92;100945.22;5045061;28;20032;-62
2022/12/28 06:58:55;;;;;;;1.08;0.93;;;;;;;17.91;46.12;100943.38;5040272;28;20021;-62
2022/12/28 07:01:24;;;;;;;1.00;0.90;;;;;;;17.91;46.06;100941.53;5045169;28;20038;-62
2022/12/28 07:03:51;;;;;;;1.00;1.00;;;;;;;17.92;46.22;100928.91;5043779;28;20088;-62
2022/12/28 07:06:18;;;;;;;0.95;0.80;;;;;;;17.85;45.97;100920.66;5044739;28;20036;-62
2022/12/28 07:08:44;;;;;;;1.45;1.00;;;;;;;17.93;46.18;100936.84;5044287;28;20384;-61
2022/12/28 07:11:19;;;;;;;1.30;0.90;;;;;;;17.93;46.32;100926.09;5044360;28;20462;-62
2022/12/28 07:13:44;;;;;;;1.20;0.82;;;;;;;17.93;46.10;100942.22;5041281;28;20025;-62
2022/12/28 07:16:12;;;;;;;1.30;1.20;;;;;;;17.95;45.70;100944.75;5040749;28;20017;-62
2022/12/28 07:18:37;;;;;;;0.93;0.90;;;;;;;17.95;46.22;100939.38;5043567;28;20025;-62
2022/12/28 07:21:05;;;;;;;0.85;0.85;;;;;;;17.95;46.30;100942.88;5044340;28;20017;-61
2022/12/28 07:23:31;;;;;;;0.90;0.80;;;;;;;17.95;46.19;100937.50;5044089;28;20171;-62
2022/12/28 07:25:57;;;;;;;0.95;0.82;;;;;;;17.97;46.31;100937.38;5042530;28;20559;-62
2022/12/28 07:28:23;;;;;;;1.58;1.00;;;;;;;17.97;46.25;100932.81;5043246;28;20025;-62
2022/12/28 07:30:49;;;;;;;1.42;0.90;;;;;;;17.97;46.00;100919.38;5043118;28;20116;-62
2022/12/28 07:33:14;;;;;;;0.68;0.60;;;;;;;17.99;45.83;100935.34;5043269;28;20537;-62
2022/12/28 07:35:39;;;;;;;2.40;1.08;;;;;;;17.99;46.07;100938.88;5043421;28;20021;-61
2022/12/28 07:38:04;;;;;;;2.25;0.80;;;;;;;17.98;46.00;100929.13;5042861;28;20041;-62
2022/12/28 07:40:30;;;;;;;1.52;1.05;;;;;;;17.98;45.91;100929.13;5044028;28;20048;-62
2022/12/28 07:42:55;;;;;;;1.17;1.02;;;;;;;17.99;46.04;100935.34;5043432;28;20025;-61
2022/12/28 07:45:20;;;;;;;1.02;0.80;;;;;;;18.00;46.12;100937.03;5041016;28;20060;-62
2022/12/28 07:47:46;;;;;;;0.95;0.80;;;;;;;17.99;46.06;100943.41;5039891;28;20045;-62
2022/12/28 07:50:11;;;;;;;2.17;1.05;;;;;;;18.01;46.25;100943.25;5042788;28;20061;-62
2022/12/28 07:52:36;;;;;;;1.63;1.00;;;;;;;18.03;46.10;100939.41;5044133;28;20489;-61
2022/12/28 07:55:02;;;;;;;1.08;0.88;;;;;;;18.06;45.91;100936.41;5043996;28;20025;-61
2022/12/28 07:57:27;;;;;;;2.28;0.88;;;;;;;18.00;45.95;100918.19;5044070;28;20025;-62
2022/12/28 07:59:53;;;;;;;0.90;0.77;;;;;;;18.07;46.28;100927.31;5043577;28;20021;-61
2022/12/28 08:02:18;;;;;;;1.40;0.90;;;;;;;18.09;46.05;100927.97;5042437;28;20029;-60
2022/12/28 08:04:43;;;;;;;0.80;0.80;;;;;;;18.10;45.67;100934.22;5043663;28;20068;-61
2022/12/28 08:07:09;;;;;;;1.83;0.80;;;;;;;18.11;45.84;100933.22;5043323;28;20033;-61
2022/12/28 08:09:34;;;;;;;0.93;0.93;;;;;;;17.93;45.83;100904.56;5043441;28;20029;-61
2022/12/28 08:11:59;;;;;;;0.82;0.80;;;;;;;18.11;46.12;100936.75;5042742;28;20038;-61
2022/12/28 08:14:25;;;;;;;1.13;0.80;;;;;;;18.05;45.88;100925.78;5043535;28;20013;-62
2022/12/28 08:16:50;;;;;;;1.95;0.80;;;;;;;18.11;46.10;100927.84;5043736;28;20030;-61
2022/12/28 08:19:15;;;;;;;0.98;0.80;;;;;;;18.11;45.74;100933.22;5043219;28;20017;-61
2022/12/28 08:21:42;;;;;;;0.75;0.75;;;;;;;18.16;45.70;100936.25;5043543;28;20029;-61
2022/12/28 08:24:13;;;;;;;1.65;0.82;;;;;;;18.14;45.71;100943.66;5043544;28;20021;-61
2022/12/28 08:26:39;;;;;;;0.98;0.77;;;;;;;18.17;45.79;100949.53;5043225;28;20088;-62
2022/12/28 08:29:11;;;;;;;2.13;0.98;;;;;;;18.17;45.54;100948.69;5043507;28;20030;-62
2022/12/28 08:31:39;;;;;;;1.25;0.90;;;;;;;18.11;45.82;100936.75;5030162;28;20017;-61
2022/12/28 08:34:07;;;;;;;0.90;0.70;;;;;;;18.19;45.56;100944.00;5043152;28;20371;-61
2022/12/28 08:36:32;;;;;;;1.10;0.82;;;;;;;18.16;45.73;100945.16;5043538;28;20040;-62
2022/12/28 08:38:59;;;;;;;0.90;0.80;;;;;;;18.18;45.46;100948.56;5043542;28;20022;-61
2022/12/28 08:41:26;;;;;;;0.70;0.70;;;;;;;18.17;45.51;100952.22;5043551;28;20033;-61
2022/12/28 08:43:52;;;;;;;1.00;0.90;;;;;;;18.19;45.42;100942.16;5059246;28;20092;-61
2022/12/28 08:46:25;;;;;;;0.70;0.70;;;;;;;18.20;45.21;100949.22;5042436;28;20599;-61
2022/12/28 08:48:52;;;;;;;0.88;0.73;;;;;;;18.16;45.37;100947.00;5043028;28;20274;-63
2022/12/28 08:51:21;;;;;;;3.22;0.90;;;;;;;18.15;45.70;100945.34;5043101;28;20086;-62
2022/12/28 08:53:47;;;;;;;1.92;0.80;;;;;;;18.19;45.71;100947.53;5041964;28;20036;-62
2022/12/28 08:56:21;;;;;;;1.77;0.98;;;;;;;18.19;45.43;100949.38;5042513;28;20029;-63
2022/12/28 08:58:47;;;;;;;0.90;0.80;;;;;;;18.19;45.65;100944.84;5038054;28;20021;-62
2022/12/28 09:01:18;;;;;;;1.80;1.17;;;;;;;18.19;45.63;100947.53;5043508;28;20029;-62
2022/12/28 09:03:45;;;;;;;1.48;0.90;;;;;;;18.20;45.65;100935.75;5042710;28;20029;-62
2022/12/28 09:06:14;;;;;;;1.35;0.80;;;;;;;18.21;45.58;100939.28;5043138;28;20021;-62
2022/12/28 09:08:39;;;;;;;1.58;1.10;;;;;;;18.21;45.68;100929.38;5042779;28;20024;-62
2022/12/28 09:11:08;;;;;;;2.05;0.80;;;;;;;18.20;45.52;100933.06;5043084;28;20108;-61
2022/12/28 09:13:34;;;;;;;0.80;0.80;;;;;;;18.18;45.77;100935.09;5040179;28;20472;-61
2022/12/28 09:16:02;;;;;;;1.80;0.80;;;;;;;18.20;45.56;100948.38;5040267;28;20453;-61
2022/12/28 09:18:27;;;;;;;1.13;0.90;;;;;;;18.18;45.69;100943.16;5041377;28;20029;-61
2022/12/28 09:20:52;;;;;;;2.03;0.88;;;;;;;18.19;46.03;100942.16;5042558;28;20040;-61
2022/12/28 09:23:18;;;;;;;1.35;0.80;;;;;;;18.20;45.76;100938.44;5042252;28;20124;-61
2022/12/28 09:25:43;;;;;;;2.05;0.90;;;;;;;18.23;45.73;100939.97;5042018;28;20022;-61
2022/12/28 09:28:09;;;;;;;0.70;0.70;;;;;;;18.21;45.91;100933.91;5056277;28;20033;-61
2022/12/28 09:30:34;;;;;;;1.48;1.00;;;;;;;18.24;46.22;100936.28;5039162;28;20537;-62
2022/12/28 09:35:43;;;;;;;2.67;0.90;;;;;;;18.23;46.33;100938.13;5042718;28;20113;-61
2022/12/28 09:38:09;;;;;;;1.30;0.77;;;;;;;18.24;46.03;100938.97;5043192;28;20025;-61
2022/12/28 09:40:35;;;;;;;0.80;0.80;;;;;;;18.24;46.29;100931.75;5046164;28;20033;-61
2022/12/28 09:43:00;;;;;;;1.42;0.80;;;;;;;18.26;46.42;100931.56;5045948;28;20094;-62
2022/12/28 09:45:26;;;;;;;2.55;1.00;;;;;;;18.28;46.48;100937.63;5046360;28;20026;-62
2022/12/28 09:47:54;;;;;;;1.42;0.70;;;;;;;18.30;46.54;100937.47;5044815;28;20029;-61
2022/12/28 09:50:30;;;;;;;1.45;0.90;;;;;;;18.35;46.23;100937.81;5033855;28;20064;-62
2022/12/28 09:53:06;;;;;;;1.05;0.93;;;;;;;18.39;46.36;100929.28;5040344;28;20526;-61
2022/12/28 09:55:37;;;;;;;1.08;0.70;;;;;;;18.39;46.06;100937.34;5043418;28;20333;-62
2022/12/28 09:58:03;;;;;;;1.70;0.90;;;;;;;18.41;46.39;100926.41;5045214;28;20411;-62
2022/12/28 10:00:38;;;;;;;2.40;0.88;;;;;;;18.44;46.22;100926.09;5047763;28;20060;-62
2022/12/28 10:03:19;;;;;;;1.00;0.82;;;;;;;18.46;46.08;100929.44;5046051;28;20036;-61
2022/12/28 10:05:45;;;;;;;0.85;0.70;;;;;;;18.47;46.00;100928.41;5046093;28;20022;-61
2022/12/28 10:08:13;;;;;;;1.35;0.80;;;;;;;18.46;46.23;100922.19;5045224;28;20037;-62
2022/12/28 10:10:40;;;;;;;0.93;0.80;;;;;;;18.46;46.31;100916.81;5046921;28;20549;-62
2022/12/28 10:13:18;;;;;;;0.80;0.70;;;;;;;18.50;46.14;100914.63;5054325;28;20025;-63
2022/12/28 10:15:44;;;;;;;1.75;0.75;;;;;;;18.52;46.03;100918.03;5060570;28;20510;-62
2022/12/28 10:18:12;;;;;;;1.67;0.60;;;;;;;18.54;45.97;100912.47;5044821;28;20033;-63
2022/12/28 10:20:39;;;;;;;1.80;1.13;;;;;;;18.55;46.01;100925.75;5045915;28;20048;-62
2022/12/28 10:23:04;;;;;;;0.70;0.70;;;;;;;18.56;46.10;100915.81;5064580;28;20059;-62
2022/12/28 10:25:31;;;;;;;0.80;0.63;;;;;;;18.47;45.98;100899.66;5047865;28;20029;-62
2022/12/28 10:27:57;;;;;;;1.98;1.00;;;;;;;18.57;45.96;100910.28;5045899;28;20052;-62
2022/12/28 10:30:28;;;;;;;0.55;0.55;;;;;;;18.63;45.92;100908.75;5054031;28;20029;-62
2022/12/28 10:32:56;;;;;;;1.95;1.23;;;;;;;18.64;45.67;100905.06;5039294;28;20036;-62
2022/12/28 10:35:28;;;;;;;0.52;0.52;;;;;;;18.65;45.89;100907.59;5042053;28;20041;-61
2022/12/28 10:38:06;;;;;;;1.23;0.80;;;;;;;18.65;45.58;100904.06;5052045;28;20060;-62
2022/12/28 10:40:34;;;;;;;1.27;0.85;;;;;;;18.66;45.78;100900.34;5036196;28;20036;-62
2022/12/28 10:42:59;;;;;;;0.77;0.70;;;;;;;18.68;45.62;100899.16;5059629;28;20047;-63
2022/12/28 10:45:39;;;;;;;1.63;1.00;;;;;;;18.69;45.44;100900.91;5043396;28;20022;-62
2022/12/28 10:48:14;;;;;;;3.05;1.02;;;;;;;18.65;45.45;100886.06;5055468;28;20029;-62
2022/12/28 10:50:43;;;;;;;1.27;0.90;;;;;;;18.74;45.64;100889.63;5051979;28;20179;-62
2022/12/28 10:53:42;;;;;;;2.22;0.80;;;;;;;18.72;45.60;100897.00;5040520;28;20049;-62
2022/12/28 10:56:10;;;;;;;1.00;0.90;;;;;;;18.75;45.53;100885.91;5041026;28;20108;-62
2022/12/28 10:58:36;;;;;;;1.13;0.80;;;;;;;18.74;45.39;100889.63;5043126;28;20459;-62
2022/12/28 11:01:04;;;;;;;1.65;0.68;;;;;;;18.74;45.61;100878.84;5215529;22;20089;-56
2022/12/28 11:06:10;;;;;;;1.25;0.90;;;;;;;18.77;45.08;100870.41;5196474;22;20651;-54
2022/12/28 11:08:37;;;;;;;0.98;0.70;;;;;;;18.71;45.42;100850.38;5016634;28;20026;-54
2022/12/28 11:11:02;;;;;;;2.45;0.60;;;;;;;18.76;45.23;100849.88;5007771;28;20121;-52
2022/12/28 11:18:35;;;;;;;1.83;0.90;;;;;;;18.73;46.13;100851.09;3295887;23;20049;-55
2022/12/28 11:21:00;;;;;;;1.40;0.80;;;;;;;18.74;45.33;100846.53;5051147;28;20025;-54
2022/12/28 11:23:30;;;;;;;1.05;0.57;;;;;;;18.74;45.67;100841.16;5053493;28;20020;-54
2022/12/28 11:25:56;;;;;;;0.95;0.73;;;;;;;18.75;45.48;100841.97;5057206;28;20025;-52
2022/12/28 11:28:21;;;;;;;0.73;0.60;;;;;;;18.75;45.46;100844.69;5051260;28;20093;-54
2022/12/28 11:30:48;;;;;;;1.95;0.70;;;;;;;18.76;45.43;100839.09;5053386;28;20033;-49
2022/12/28 11:33:39;;;;;;;2.15;1.27;;;;;;;18.79;45.58;100829.88;5055141;28;20033;-53
2022/12/28 11:36:09;;;;;;;0.80;0.60;;;;;;;18.79;45.38;100824.47;5062820;28;20036;-50
2022/12/28 11:38:43;;;;;;;0.50;0.50;;;;;;;18.78;45.46;100823.63;5037951;28;20052;-53
2022/12/28 11:41:10;;;;;;;1.08;0.63;;;;;;;18.73;45.60;100818.75;5057176;28;20029;-54
2022/12/28 11:43:40;;;;;;;1.38;0.90;;;;;;;18.80;45.41;100823.47;5063477;28;20024;-51
2022/12/28 11:46:21;;;;;;;1.52;0.80;;;;;;;18.82;45.65;100824.09;5035436;28;20029;-56
2022/12/28 11:48:56;;;;;;;0.70;0.70;;;;;;;18.81;45.67;100819.75;5058261;28;20090;-54
2022/12/28 11:51:27;;;;;;;1.05;0.65;;;;;;;18.77;45.71;100813.00;5051932;28;20025;-56
2022/12/28 11:53:59;;;;;;;2.05;0.50;;;;;;;18.80;45.58;100810.00;5062727;28;20044;-51
2022/12/28 11:56:43;;;;;;;0.57;0.57;;;;;;;18.80;45.82;100807.28;5060089;28;20404;-52
2022/12/28 11:59:24;;;;;;;1.88;0.70;;;;;;;18.74;45.86;100792.66;5048290;28;20098;-49
2022/12/28 12:01:59;;;;;;;1.10;0.88;;;;;;;18.82;45.71;100806.13;5050462;28;20029;-54
2022/12/28 12:04:29;;;;;;;0.73;0.73;;;;;;;18.79;45.95;100806.47;5056531;28;20028;-52
2022/12/28 12:06:57;;;;;;;1.77;0.60;;;;;;;18.79;46.04;100808.31;5061187;28;20052;-55